createdAt,value
2022-12-15T00:05:44.532Z,0.40
2022-12-15T00:11:09.807Z,1.17
2022-12-15T00:16:30.029Z,0.50
2022-12-15T00:21:50.449Z,0.57
2022-12-15T00:27:10.353Z,0.40
2022-12-15T00:32:30.427Z,0.52
2022-12-15T00:42:51.980Z,0.50
2022-12-15T00:47:53.371Z,0.60
2022-12-15T00:53:13.680Z,0.95
2022-12-15T00:58:33.644Z,1.02
2022-12-15T01:09:13.586Z,1.07
2022-12-15T01:14:33.708Z,1.13
2022-12-15T01:19:53.786Z,0.68
2022-12-15T01:24:55.280Z,1.50
2022-12-15T01:29:56.685Z,0.95
2022-12-15T01:34:58.097Z,0.65
2022-12-15T01:40:17.864Z,1.10
2022-12-15T01:45:28.369Z,0.88
2022-12-15T01:50:31.095Z,1.08
2022-12-15T01:55:32.923Z,0.63
2022-12-15T02:05:50.679Z,0.55
2022-12-15T02:10:59.478Z,0.73
2022-12-15T02:16:12.905Z,0.80
2022-12-15T02:21:17.420Z,1.00
2022-12-15T02:26:36.738Z,1.65
2022-12-15T02:31:50.370Z,1.20
2022-12-15T02:36:55.912Z,0.60
2022-12-15T02:41:57.308Z,0.52
2022-12-15T02:47:11.867Z,0.47
2022-12-15T02:52:22.239Z,0.75
2022-12-15T02:57:29.470Z,0.40
2022-12-15T03:02:32.512Z,0.60
2022-12-15T03:07:34.028Z,1.10
2022-12-15T03:12:35.439Z,1.02
2022-12-15T03:17:38.340Z,0.50
2022-12-15T03:22:39.946Z,0.43
2022-12-15T03:27:41.443Z,0.45
2022-12-15T03:32:42.927Z,0.50
2022-12-15T03:37:44.464Z,0.25
2022-12-15T03:42:48.899Z,0.40
2022-12-15T03:47:50.856Z,0.50
2022-12-15T03:52:53.278Z,0.55
2022-12-15T03:57:55.173Z,0.57
2022-12-15T04:02:56.715Z,0.47
2022-12-15T04:07:58.652Z,0.80
2022-12-15T04:13:01.073Z,0.28
2022-12-15T04:18:03.191Z,0.57
2022-12-15T04:23:07.701Z,0.55
2022-12-15T04:28:28.711Z,0.70
2022-12-15T04:33:48.884Z,0.35
2022-12-15T04:39:08.907Z,0.47
2022-12-15T04:44:29.459Z,0.32
2022-12-15T04:49:49.407Z,0.50
2022-12-15T04:55:09.508Z,0.47
2022-12-15T05:00:29.660Z,0.63
2022-12-15T05:05:49.797Z,0.85
2022-12-15T05:11:09.871Z,0.50
2022-12-15T05:16:30.094Z,0.47
2022-12-15T05:21:50.062Z,0.50
2022-12-15T05:27:10.139Z,0.57
2022-12-15T05:32:13.291Z,0.70
2022-12-15T05:37:15.133Z,0.45
2022-12-15T05:42:16.539Z,0.40
2022-12-15T05:47:17.971Z,0.75
2022-12-15T05:52:19.387Z,0.47
2022-12-15T05:57:21.018Z,0.82
2022-12-15T06:02:22.470Z,0.38
2022-12-15T06:07:24.156Z,0.47
2022-12-15T06:12:25.577Z,0.40
2022-12-15T06:17:27.004Z,0.45
2022-12-15T06:22:29.365Z,0.40
2022-12-15T06:27:30.923Z,0.35
2022-12-15T06:32:35.192Z,0.95
2022-12-15T06:37:36.627Z,0.30
2022-12-15T06:42:38.029Z,0.50
2022-12-15T06:47:39.418Z,0.77
2022-12-15T06:52:41.694Z,0.43
2022-12-15T06:57:43.204Z,0.52
2022-12-15T07:02:44.799Z,0.63
2022-12-15T07:07:52.098Z,0.47
2022-12-15T07:12:55.880Z,0.55
2022-12-15T07:17:57.327Z,0.60
2022-12-15T07:22:58.742Z,0.60
2022-12-15T07:28:00.179Z,0.82
2022-12-15T07:33:01.599Z,0.77
2022-12-15T07:38:06.132Z,0.45
2022-12-15T07:43:07.688Z,1.05
2022-12-15T07:48:09.851Z,1.05
2022-12-15T07:53:11.244Z,0.45
2022-12-15T07:58:12.725Z,0.43
2022-12-15T08:03:14.241Z,0.55
2022-12-15T08:08:15.892Z,0.40
2022-12-15T08:13:38.169Z,0.43
2022-12-15T08:18:39.615Z,0.45
2022-12-15T08:23:41.147Z,0.85
2022-12-15T08:28:43.065Z,1.17
2022-12-15T08:33:45.109Z,1.67
2022-12-15T08:38:46.753Z,1.42
2022-12-15T08:43:49.499Z,1.27
2022-12-15T08:48:52.911Z,1.00
2022-12-15T08:53:55.062Z,1.17
2022-12-15T08:59:00.437Z,1.00
2022-12-15T09:04:04.022Z,0.50
2022-12-15T09:09:07.471Z,0.60
2022-12-15T09:14:09.268Z,1.60
2022-12-15T09:19:10.722Z,0.68
2022-12-15T09:24:18.387Z,0.80
2022-12-15T09:29:26.340Z,0.68
2022-12-15T09:34:27.744Z,1.42
2022-12-15T09:39:29.130Z,1.20
2022-12-15T09:44:32.127Z,0.68
2022-12-15T09:49:39.426Z,0.65
2022-12-15T09:54:44.057Z,1.17
2022-12-15T10:00:21.229Z,1.23
2022-12-15T10:05:29.812Z,1.25
2022-12-15T10:10:43.528Z,4.13
2022-12-15T10:15:47.459Z,6.53
2022-12-15T10:20:55.364Z,5.63
2022-12-15T10:26:11.731Z,1.45
2022-12-15T10:31:28.892Z,2.13
2022-12-15T10:36:30.416Z,1.70
2022-12-15T10:41:32.798Z,1.08
2022-12-15T10:46:34.264Z,1.98
2022-12-15T10:51:38.639Z,1.80
2022-12-15T10:56:48.447Z,1.02
2022-12-15T11:01:52.301Z,1.80
2022-12-15T11:06:57.869Z,1.65
2022-12-15T11:12:17.817Z,1.15
2022-12-15T11:17:20.780Z,1.30
2022-12-15T11:22:44.052Z,1.20
2022-12-15T11:27:47.272Z,1.67
2022-12-15T11:32:49.831Z,0.77
2022-12-15T11:38:03.525Z,2.22
2022-12-15T11:43:23.445Z,0.90
2022-12-15T11:53:44.999Z,1.75
2022-12-15T11:58:48.771Z,1.30
2022-12-15T12:04:00.391Z,1.15
2022-12-15T12:09:13.825Z,1.30
2022-12-15T12:14:15.879Z,1.58
2022-12-15T12:19:25.177Z,1.58
2022-12-15T12:24:29.268Z,0.57
2022-12-15T12:29:35.434Z,1.73
2022-12-15T12:34:39.991Z,1.45
2022-12-15T12:39:41.730Z,2.20
2022-12-15T12:44:43.261Z,1.90
2022-12-15T12:49:50.453Z,1.55
2022-12-15T12:55:02.847Z,6.22
2022-12-15T13:00:04.249Z,4.25
2022-12-15T13:05:24.171Z,1.20
2022-12-15T13:10:25.744Z,0.95
2022-12-15T13:15:27.138Z,1.10
2022-12-15T13:20:29.835Z,0.90
2022-12-15T13:25:41.535Z,0.73
2022-12-15T13:31:06.332Z,2.83
2022-12-15T13:36:08.072Z,1.27
2022-12-15T13:41:22.259Z,1.90
2022-12-15T13:46:25.980Z,9.85
2022-12-15T13:51:34.242Z,5.18
2022-12-15T13:56:47.801Z,3.65
2022-12-15T14:01:52.947Z,1.23
2022-12-15T14:07:01.135Z,1.30
2022-12-15T14:12:04.516Z,2.38
2022-12-15T14:17:09.769Z,3.63
2022-12-15T14:22:28.271Z,1.95
2022-12-15T14:27:31.849Z,1.05
2022-12-15T14:32:33.311Z,1.38
2022-12-15T14:37:35.026Z,1.30
2022-12-15T14:42:37.955Z,1.65
2022-12-15T14:47:39.392Z,2.20
2022-12-15T14:52:41.936Z,2.45
2022-12-15T14:57:44.508Z,2.38
2022-12-15T15:02:46.014Z,0.63
2022-12-15T15:07:47.552Z,1.73
2022-12-15T15:12:49.406Z,1.63
2022-12-15T15:17:55.996Z,2.45
2022-12-15T15:23:13.455Z,2.65
2022-12-15T15:28:20.547Z,3.47
2022-12-15T15:33:22.445Z,2.08
2022-12-15T15:38:38.967Z,2.30
2022-12-15T15:43:40.358Z,2.25
2022-12-15T15:48:44.744Z,1.75
2022-12-15T15:53:46.550Z,1.30
2022-12-15T15:58:49.112Z,1.08
2022-12-15T16:03:50.569Z,3.67
2022-12-15T16:08:53.813Z,0.98
2022-12-15T16:13:56.666Z,0.50
2022-12-15T16:18:58.296Z,2.58
2022-12-15T16:24:00.076Z,1.77
2022-12-15T16:29:01.479Z,3.58
2022-12-15T16:34:06.796Z,3.72
2022-12-15T16:39:27.561Z,2.08
2022-12-15T16:44:29.465Z,1.58
2022-12-15T16:49:35.227Z,2.00
2022-12-15T16:54:39.988Z,2.00
2022-12-15T16:59:41.409Z,2.00
2022-12-15T17:04:42.801Z,1.58
2022-12-15T17:09:44.272Z,1.15
2022-12-15T17:14:45.848Z,0.75
2022-12-15T17:20:19.772Z,0.82
2022-12-15T17:25:27.397Z,3.72
2022-12-15T17:30:39.151Z,1.50
2022-12-15T17:35:40.592Z,1.80
2022-12-15T17:40:42.039Z,0.82
2022-12-15T17:45:43.572Z,1.17
2022-12-15T17:50:50.140Z,1.25
2022-12-15T17:55:52.763Z,3.85
2022-12-15T18:00:55.780Z,3.63
2022-12-15T18:05:57.531Z,1.48
2022-12-15T18:10:59.370Z,1.25
2022-12-15T18:16:03.793Z,4.55
2022-12-15T18:21:16.545Z,5.55
2022-12-15T18:26:17.988Z,4.22
2022-12-15T18:31:21.528Z,2.03
2022-12-15T18:36:23.523Z,1.02
2022-12-15T18:41:24.932Z,4.60
2022-12-15T18:46:26.494Z,5.70
2022-12-15T18:51:28.947Z,7.18
2022-12-15T18:56:30.581Z,2.10
2022-12-15T19:01:32.194Z,2.03
2022-12-15T19:06:36.323Z,1.52
2022-12-15T19:11:37.788Z,1.85
2022-12-15T19:16:57.769Z,1.10
2022-12-15T19:22:17.728Z,1.30
2022-12-15T19:27:20.885Z,1.30
2022-12-15T19:32:23.126Z,2.88
2022-12-15T19:37:24.520Z,2.83
2022-12-15T19:42:35.837Z,3.22
2022-12-15T19:47:37.244Z,6.57
2022-12-15T19:52:38.671Z,5.88
2022-12-15T19:57:40.074Z,2.97
2022-12-15T20:02:41.585Z,2.13
2022-12-15T20:07:43.088Z,0.82
2022-12-15T20:12:44.739Z,1.42
2022-12-15T20:17:46.380Z,0.80
2022-12-15T20:22:50.764Z,0.45
2022-12-15T20:27:52.239Z,1.00
2022-12-15T20:32:53.939Z,1.15
2022-12-15T20:37:55.381Z,2.28
2022-12-15T20:42:56.995Z,4.88
2022-12-15T20:47:58.836Z,2.85
2022-12-15T20:53:00.420Z,5.60
2022-12-15T20:58:01.854Z,1.90
2022-12-15T21:03:12.578Z,5.15
2022-12-15T21:08:18.460Z,1.80
2022-12-15T21:13:22.435Z,2.35
2022-12-15T21:23:45.737Z,3.45
2022-12-15T21:28:48.702Z,1.25
2022-12-15T21:33:50.380Z,2.20
2022-12-15T21:38:52.138Z,2.08
2022-12-15T21:43:55.033Z,2.22
2022-12-15T21:49:15.064Z,2.13
2022-12-15T21:54:30.998Z,2.60
2022-12-15T21:59:33.031Z,3.80
2022-12-15T22:04:35.223Z,2.47
2022-12-15T22:09:36.623Z,1.25
2022-12-15T22:14:38.028Z,1.02
2022-12-15T22:19:39.467Z,0.90
2022-12-15T22:24:40.948Z,0.85
2022-12-15T22:29:42.368Z,0.65
2022-12-15T22:34:43.788Z,0.65
2022-12-15T22:39:45.196Z,0.60
2022-12-15T22:44:46.658Z,0.50
2022-12-15T22:49:48.172Z,0.45
2022-12-15T22:54:49.622Z,0.43
2022-12-15T23:00:00.638Z,0.65
2022-12-15T23:05:02.378Z,0.47
2022-12-15T23:10:22.787Z,0.38
2022-12-15T23:15:44.523Z,0.45
2022-12-15T23:20:45.982Z,0.60
2022-12-15T23:25:47.390Z,0.73
2022-12-15T23:30:49.987Z,0.40
2022-12-15T23:35:55.246Z,0.70
2022-12-15T23:40:57.446Z,0.68
2022-12-15T23:45:59.871Z,0.30
2022-12-15T23:51:04.702Z,0.47
2022-12-15T23:56:06.834Z,1.50
